createdAt,value
2022-11-09T00:00:49.962Z,74.36
2022-11-09T00:03:16.944Z,74.22
2022-11-09T00:05:43.956Z,74.82
2022-11-09T00:08:11.768Z,76.12
2022-11-09T00:10:38.582Z,75.91
2022-11-09T00:13:05.515Z,76.53
2022-11-09T00:15:32.064Z,78.16
2022-11-09T00:18:02.054Z,78.12
2022-11-09T00:20:28.756Z,78.98
2022-11-09T00:22:55.384Z,80.86
2022-11-09T00:25:21.953Z,79.55
2022-11-09T00:27:48.577Z,79.13
2022-11-09T00:30:15.479Z,79.95
2022-11-09T00:32:42.284Z,80.14
2022-11-09T00:35:09.158Z,80.49
2022-11-09T00:37:35.876Z,80.96
2022-11-09T00:40:02.625Z,82.43
2022-11-09T00:42:29.271Z,83.06
2022-11-09T00:44:55.863Z,84.53
2022-11-09T00:47:22.501Z,84.80
2022-11-09T00:49:49.077Z,84.77
2022-11-09T00:52:15.788Z,84.58
2022-11-09T09:40:26.705Z,99.31
2022-11-09T09:42:55.295Z,99.77
2022-11-09T09:45:28.107Z,97.56
2022-11-09T09:48:04.004Z,97.88
2022-11-09T09:50:51.311Z,97.67
2022-11-09T09:53:29.346Z,97.16
2022-11-09T09:56:12.662Z,97.53
2022-11-09T09:58:46.531Z,96.38
2022-11-09T10:01:20.206Z,96.04
2022-11-09T10:03:50.948Z,93.93
2022-11-09T10:06:42.081Z,94.11
2022-11-09T10:09:20.919Z,92.88
2022-11-09T10:12:11.448Z,91.26
2022-11-09T10:14:48.655Z,91.18
2022-11-09T10:17:30.668Z,90.21
2022-11-09T10:20:12.119Z,90.94
2022-11-09T10:22:45.798Z,89.65
2022-11-09T10:25:50.371Z,89.89
2022-11-09T10:28:17.370Z,90.55
2022-11-09T10:30:44.781Z,89.21
2022-11-09T10:33:11.341Z,87.44
2022-11-09T10:35:45.269Z,88.33
2022-11-09T10:38:37.162Z,87.39
2022-11-09T10:41:24.299Z,87.46
2022-11-09T10:43:50.938Z,86.40
2022-11-09T10:46:17.589Z,87.44
2022-11-09T10:48:44.333Z,87.21
2022-11-09T10:51:35.813Z,86.41
2022-11-09T10:54:15.422Z,87.09
2022-11-09T10:59:35.283Z,85.81
2022-11-09T11:02:02.517Z,86.20
2022-11-09T11:04:29.197Z,85.27
2022-11-09T11:06:56.179Z,86.18
2022-11-09T11:09:23.509Z,86.37
2022-11-09T11:12:13.564Z,85.18
2022-11-09T11:14:43.915Z,86.62
2022-11-09T11:17:35.005Z,85.26
2022-11-09T11:20:32.462Z,85.92
2022-11-09T11:23:12.832Z,86.33
2022-11-09T11:26:02.462Z,86.75
2022-11-09T11:29:00.997Z,86.84
2022-11-09T11:31:28.546Z,86.34
2022-11-09T11:33:56.412Z,86.60
2022-11-09T11:36:50.769Z,86.66
2022-11-09T11:40:08.875Z,82.83
2022-11-09T11:42:44.272Z,82.27
2022-11-09T11:45:39.724Z,80.58
2022-11-09T11:48:26.692Z,80.56
2022-11-09T11:50:59.119Z,80.40
2022-11-09T11:54:03.417Z,80.08
2022-11-09T11:56:46.682Z,79.37
2022-11-09T11:59:22.377Z,78.76
2022-11-09T12:01:57.732Z,78.37
2022-11-09T12:04:40.576Z,79.14
2022-11-09T12:07:13.355Z,78.94
2022-11-09T12:09:45.912Z,79.24
2022-11-09T12:12:37.303Z,78.84
2022-11-09T12:15:22.108Z,78.50
2022-11-09T12:18:04.984Z,78.42
2022-11-09T12:20:42.099Z,77.97
2022-11-09T12:23:21.117Z,76.50
2022-11-09T12:26:24.300Z,76.98
2022-11-09T12:29:06.846Z,77.39
2022-11-09T12:31:53.671Z,77.52
2022-11-09T12:34:33.817Z,76.22
2022-11-09T12:37:18.417Z,77.00
2022-11-09T12:39:53.345Z,78.12
2022-11-09T12:42:48.181Z,77.10
2022-11-09T12:45:22.696Z,78.03
2022-11-09T12:47:49.511Z,77.87
2022-11-09T12:50:19.344Z,77.75
2022-11-09T12:52:48.707Z,77.52
2022-11-09T12:55:16.596Z,77.69
2022-11-09T12:57:46.897Z,78.23
2022-11-09T13:00:33.796Z,77.69
2022-11-09T13:03:06.896Z,77.70
2022-11-09T13:05:37.650Z,77.56
2022-11-09T13:08:15.591Z,77.18
2022-11-09T13:10:42.742Z,77.52
2022-11-09T13:13:12.229Z,77.58
2022-11-09T13:15:39.965Z,77.65
2022-11-09T13:18:06.638Z,76.89
2022-11-09T13:23:54.589Z,75.69
2022-11-09T13:26:32.991Z,75.54
2022-11-09T13:29:14.855Z,75.70
2022-11-09T13:32:00.311Z,76.24
2022-11-09T13:34:44.543Z,76.25
2022-11-09T13:37:35.968Z,76.02
2022-11-09T13:40:33.531Z,75.22
2022-11-09T13:43:04.396Z,75.65
2022-11-09T13:45:48.821Z,75.85
2022-11-09T13:48:33.321Z,75.41
2022-11-09T13:51:04.812Z,75.86
2022-11-09T13:53:37.250Z,75.65
2022-11-09T13:56:27.934Z,75.20
2022-11-09T13:58:57.901Z,75.71
2022-11-09T14:01:38.570Z,75.16
2022-11-09T14:04:05.660Z,75.50
2022-11-09T14:06:33.701Z,75.46
2022-11-09T14:09:01.434Z,76.17
2022-11-09T14:11:34.169Z,75.67
2022-11-09T14:14:30.088Z,75.82
2022-11-09T14:17:09.136Z,75.92
2022-11-09T14:19:54.091Z,75.87
2022-11-09T14:22:20.839Z,75.11
2022-11-09T14:24:47.568Z,75.31
2022-11-09T14:27:23.724Z,75.69
2022-11-09T14:29:56.300Z,75.95
2022-11-09T14:32:22.881Z,76.18
2022-11-09T14:34:49.708Z,76.08
2022-11-09T14:37:16.919Z,76.49
2022-11-09T14:39:49.450Z,76.77
2022-11-09T14:42:23.283Z,76.72
2022-11-09T14:44:50.251Z,77.36
2022-11-09T14:47:16.831Z,76.90
2022-11-09T14:49:45.283Z,76.69
2022-11-09T14:52:17.611Z,76.69
2022-11-09T14:54:46.301Z,76.71
2022-11-09T14:57:15.641Z,77.35
2022-11-09T14:59:45.094Z,77.61
2022-11-09T15:02:22.119Z,77.50
2022-11-09T15:05:03.814Z,77.27
2022-11-09T15:07:34.583Z,77.83
2022-11-09T15:10:05.800Z,78.12
2022-11-09T15:12:33.652Z,78.04
2022-11-09T15:15:05.071Z,78.19
2022-11-09T15:17:34.688Z,78.31
2022-11-09T15:20:02.608Z,78.53
2022-11-09T15:22:44.014Z,78.66
2022-11-09T15:25:22.799Z,79.24
2022-11-09T15:28:09.531Z,79.32
2022-11-09T15:30:54.445Z,79.41
2022-11-09T15:33:35.420Z,79.80
2022-11-09T15:36:07.035Z,79.87
2022-11-09T15:38:38.654Z,79.91
2022-11-09T15:41:18.161Z,80.45
2022-11-09T15:43:44.965Z,80.89
2022-11-09T15:46:17.649Z,80.82
2022-11-09T15:48:46.304Z,80.60
2022-11-09T15:51:14.576Z,81.14
2022-11-09T15:53:41.430Z,81.42
2022-11-09T15:56:20.449Z,81.73
2022-11-09T15:58:49.216Z,81.85
2022-11-09T16:01:16.203Z,82.10
2022-11-09T16:03:42.879Z,82.18
2022-11-09T16:06:11.308Z,82.21
2022-11-09T16:08:38.122Z,82.18
2022-11-09T16:11:06.237Z,82.30
2022-11-09T16:13:32.832Z,83.04
2022-11-09T16:16:05.261Z,82.83
2022-11-09T16:18:32.660Z,82.97
2022-11-09T16:21:08.468Z,83.41
2022-11-09T16:23:35.702Z,83.43
2022-11-09T16:26:11.751Z,84.01
2022-11-09T16:28:40.217Z,83.98
2022-11-09T16:31:08.072Z,84.23
2022-11-09T16:33:34.714Z,84.29
2022-11-09T16:36:05.354Z,84.55
2022-11-09T16:38:39.396Z,84.63
2022-11-09T16:41:06.335Z,84.63
2022-11-09T16:43:36.391Z,85.25
2022-11-09T16:46:03.170Z,85.05
2022-11-09T16:48:32.949Z,84.86
2022-11-09T16:50:59.940Z,85.12
2022-11-09T16:53:27.315Z,85.33
2022-11-09T16:55:54.612Z,85.66
2022-11-09T16:58:21.510Z,85.76
2022-11-09T17:03:37.234Z,86.04
2022-11-09T17:06:04.327Z,86.42
2022-11-09T17:08:30.943Z,86.20
2022-11-09T17:10:57.843Z,86.13
2022-11-09T17:13:24.431Z,86.37
2022-11-09T17:15:54.804Z,86.05
2022-11-09T17:18:21.681Z,86.43
2022-11-09T17:20:50.762Z,86.40
2022-11-09T17:23:18.925Z,86.40
2022-11-09T17:26:03.034Z,86.56
2022-11-09T17:28:29.805Z,86.84
2022-11-09T17:30:56.399Z,86.95
2022-11-09T17:33:24.829Z,86.81
2022-11-09T17:36:06.736Z,86.71
2022-11-09T17:38:33.583Z,86.98
2022-11-09T17:41:03.368Z,87.15
2022-11-09T17:43:34.720Z,87.26
2022-11-09T17:46:12.735Z,87.32
2022-11-09T17:48:41.434Z,87.07
2022-11-09T17:51:09.632Z,87.40
2022-11-09T17:53:36.570Z,87.70
2022-11-09T17:56:03.795Z,87.49
2022-11-09T17:58:31.568Z,87.68
2022-11-09T18:01:09.583Z,87.77
2022-11-09T18:03:38.083Z,87.79
2022-11-09T18:06:10.668Z,87.48
2022-11-09T18:08:37.722Z,87.88
2022-11-09T18:11:04.639Z,87.87
2022-11-09T18:13:31.294Z,88.08
2022-11-09T18:15:58.232Z,87.89
2022-11-09T18:18:25.441Z,88.37
2022-11-09T18:20:52.042Z,88.63
2022-11-09T18:23:18.717Z,88.79
2022-11-09T18:25:55.929Z,89.01
2022-11-09T18:28:22.888Z,88.98
2022-11-09T18:30:49.647Z,88.80
2022-11-09T18:33:16.321Z,89.11
2022-11-09T18:35:42.963Z,89.29
2022-11-09T18:38:13.107Z,89.32
2022-11-09T18:40:40.057Z,89.44
2022-11-09T18:43:06.902Z,89.37
2022-11-09T18:45:34.893Z,89.45
2022-11-09T18:48:01.586Z,89.59
2022-11-09T18:50:28.458Z,90.02
2022-11-09T18:52:55.127Z,90.26
2022-11-09T18:55:21.788Z,90.29
2022-11-09T18:57:48.468Z,90.42
2022-11-09T19:00:15.544Z,90.63
2022-11-09T19:02:42.282Z,90.78
2022-11-09T19:05:09.404Z,90.67
2022-11-09T19:07:36.111Z,90.81
2022-11-09T19:10:03.174Z,90.93
2022-11-09T19:12:30.292Z,90.81
2022-11-09T19:14:56.960Z,90.80
2022-11-09T19:17:24.008Z,90.67
2022-11-09T19:19:50.644Z,90.86
2022-11-09T19:22:19.138Z,91.06
2022-11-09T19:24:46.507Z,91.06
2022-11-09T19:27:13.419Z,91.18
2022-11-09T19:29:40.211Z,91.00
2022-11-09T19:32:06.913Z,90.72
2022-11-09T19:34:33.540Z,90.48
2022-11-09T19:37:00.326Z,90.45
2022-11-09T19:39:32.535Z,90.48
2022-11-09T19:42:00.398Z,90.78
2022-11-09T19:44:27.052Z,90.34
2022-11-09T19:46:53.819Z,90.46
2022-11-09T19:49:20.644Z,90.28
2022-11-09T19:51:47.277Z,90.62
2022-11-09T19:54:14.486Z,90.59
